sensor_id;sensor_type;location;lat;lon;timestamp;pressure;altitude;pressure_sealevel;temperature;humidity
11053;BME280;55230;42.602;23.470;2022-07-23T00:01:02;93249.09;;;17.14;55.37
11053;BME280;55230;42.602;23.470;2022-07-23T00:03:28;93809.34;;;20.99;55.17
11053;BME280;55230;42.602;23.470;2022-07-23T00:05:55;93810.09;;;21.00;55.19
11053;BME280;55230;42.602;23.470;2022-07-23T00:08:22;93611.84;;;19.61;55.66
11053;BME280;55230;42.602;23.470;2022-07-23T00:10:49;93781.34;;;20.60;56.14
11053;BME280;55230;42.602;23.470;2022-07-23T00:13:16;93786.31;;;20.61;56.20
11053;BME280;55230;42.602;23.470;2022-07-23T00:15:44;93805.91;;;20.77;56.62
11053;BME280;55230;42.602;23.470;2022-07-23T00:18:11;93812.66;;;20.76;55.34
11053;BME280;55230;42.602;23.470;2022-07-23T00:20:38;93820.88;;;20.81;55.50
11053;BME280;55230;42.602;23.470;2022-07-23T00:23:05;93720.94;;;20.14;56.05
11053;BME280;55230;42.602;23.470;2022-07-23T00:25:31;93729.91;;;20.09;56.18
11053;BME280;55230;42.602;23.470;2022-07-23T00:27:59;93813.19;;;20.68;56.61
11053;BME280;55230;42.602;23.470;2022-07-23T00:30:27;93733.19;;;19.96;57.10
11053;BME280;55230;42.602;23.470;2022-07-23T00:32:58;93813.75;;;20.45;57.42
11053;BME280;55230;42.602;23.470;2022-07-23T00:35:28;93768.22;;;20.09;57.41
11053;BME280;55230;42.602;23.470;2022-07-23T00:37:56;93660.38;;;18.99;57.28
11053;BME280;55230;42.602;23.470;2022-07-23T00:40:23;93716.53;;;19.22;58.37
11053;BME280;55230;42.602;23.470;2022-07-23T00:42:50;93808.81;;;20.05;59.20
11053;BME280;55230;42.602;23.470;2022-07-23T00:45:17;93814.31;;;20.16;59.32
11053;BME280;55230;42.602;23.470;2022-07-23T00:47:44;93680.25;;;19.16;58.79
11053;BME280;55230;42.602;23.470;2022-07-23T00:50:13;93806.09;;;20.10;58.82
11053;BME280;55230;42.602;23.470;2022-07-23T00:52:40;93812.53;;;20.13;58.88
11053;BME280;55230;42.602;23.470;2022-07-23T00:55:08;93804.59;;;20.09;59.55
11053;BME280;55230;42.602;23.470;2022-07-23T00:57:36;93807.09;;;20.02;59.63
11053;BME280;55230;42.602;23.470;2022-07-23T01:00:03;93752.88;;;19.62;59.82
11053;BME280;55230;42.602;23.470;2022-07-23T01:02:31;93824.75;;;19.95;59.80
11053;BME280;55230;42.602;23.470;2022-07-23T01:04:58;93565.41;;;18.17;60.47
11053;BME280;55230;42.602;23.470;2022-07-23T01:07:26;93775.03;;;19.64;60.86
11053;BME280;55230;42.602;23.470;2022-07-23T01:09:54;93803.38;;;19.77;60.74
11053;BME280;55230;42.602;23.470;2022-07-23T01:12:21;93782.97;;;19.39;61.19
11053;BME280;55230;42.602;23.470;2022-07-23T01:14:53;93806.09;;;19.66;61.43
11053;BME280;55230;42.602;23.470;2022-07-23T01:17:20;93787.22;;;19.51;61.61
11053;BME280;55230;42.602;23.470;2022-07-23T01:19:48;93748.91;;;19.40;61.15
11053;BME280;55230;42.602;23.470;2022-07-23T01:22:15;93546.53;;;18.08;61.51
11053;BME280;55230;42.602;23.470;2022-07-23T01:24:45;93689.94;;;19.01;61.25
11053;BME280;55230;42.602;23.470;2022-07-23T01:27:11;93796.66;;;19.84;61.30
11053;BME280;55230;42.602;23.470;2022-07-23T01:29:39;93792.66;;;19.85;61.10
11053;BME280;55230;42.602;23.470;2022-07-23T01:32:06;93718.09;;;19.34;61.22
11053;BME280;55230;42.602;23.470;2022-07-23T01:34:32;93791.41;;;19.97;60.98
11053;BME280;55230;42.602;23.470;2022-07-23T01:36:59;93742.69;;;19.62;60.85
11053;BME280;55230;42.602;23.470;2022-07-23T01:39:26;93767.53;;;19.81;60.62
11053;BME280;55230;42.602;23.470;2022-07-23T01:41:54;93764.81;;;19.64;60.78
11053;BME280;55230;42.602;23.470;2022-07-23T01:44:21;93791.91;;;19.95;60.98
11053;BME280;55230;42.602;23.470;2022-07-23T01:46:48;93556.09;;;17.81;60.91
11053;BME280;55230;42.602;23.470;2022-07-23T01:49:15;93791.19;;;19.95;61.04
11053;BME280;55230;42.602;23.470;2022-07-23T01:51:41;93793.41;;;19.91;61.53
11053;BME280;55230;42.602;23.470;2022-07-23T01:54:22;93794.16;;;19.91;61.64
11053;BME280;55230;42.602;23.470;2022-07-23T01:56:49;93798.88;;;19.85;60.84
11053;BME280;55230;42.602;23.470;2022-07-23T01:59:17;93793.66;;;19.82;61.09
11053;BME280;55230;42.602;23.470;2022-07-23T02:01:44;93798.88;;;19.80;61.21
11053;BME280;55230;42.602;23.470;2022-07-23T02:04:11;93721.53;;;19.24;61.93
11053;BME280;55230;42.602;23.470;2022-07-23T02:06:38;93583.22;;;18.07;62.01
11053;BME280;55230;42.602;23.470;2022-07-23T02:09:04;93801.63;;;19.69;62.10
11053;BME280;55230;42.602;23.470;2022-07-23T02:11:31;93749.34;;;19.11;62.63
11053;BME280;55230;42.602;23.470;2022-07-23T02:13:58;93800.38;;;19.42;62.08
11053;BME280;55230;42.602;23.470;2022-07-23T02:16:26;93795.88;;;19.50;62.16
11053;BME280;55230;42.602;23.470;2022-07-23T02:18:53;93640.38;;;18.38;61.46
11053;BME280;55230;42.602;23.470;2022-07-23T02:21:20;93650.38;;;18.41;61.83
11053;BME280;55230;42.602;23.470;2022-07-23T02:23:46;93658.78;;;18.43;62.13
11053;BME280;55230;42.602;23.470;2022-07-23T02:26:13;93806.56;;;19.37;62.88
11053;BME280;55230;42.602;23.470;2022-07-23T02:28:40;93741.34;;;18.86;63.10
11053;BME280;55230;42.602;23.470;2022-07-23T02:31:07;93812.53;;;19.35;63.49
11053;BME280;55230;42.602;23.470;2022-07-23T02:33:35;93809.50;;;19.22;63.88
11053;BME280;55230;42.602;23.470;2022-07-23T02:36:02;93673.13;;;18.38;64.49
11053;BME280;55230;42.602;23.470;2022-07-23T02:38:30;93807.25;;;19.21;64.78
11053;BME280;55230;42.602;23.470;2022-07-23T02:40:57;93839.06;;;19.13;64.89
11053;BME280;55230;42.602;23.470;2022-07-23T02:43:23;93753.91;;;18.56;65.41
11053;BME280;55230;42.602;23.470;2022-07-23T02:45:50;93806.41;;;18.82;66.31
11053;BME280;55230;42.602;23.470;2022-07-23T02:48:17;93727.66;;;18.16;65.86
11053;BME280;55230;42.602;23.470;2022-07-23T02:50:45;93806.66;;;18.78;65.62
11053;BME280;55230;42.602;23.470;2022-07-23T02:53:12;93814.63;;;18.87;65.61
11053;BME280;55230;42.602;23.470;2022-07-23T02:55:39;93789.38;;;18.45;66.17
11053;BME280;55230;42.602;23.470;2022-07-23T02:58:05;93769.94;;;18.37;66.11
11053;BME280;55230;42.602;23.470;2022-07-23T03:00:32;93792.91;;;18.56;66.56
11053;BME280;55230;42.602;23.470;2022-07-23T03:02:59;93826.75;;;18.75;66.96
11053;BME280;55230;42.602;23.470;2022-07-23T03:05:26;93718.19;;;18.06;67.03
11053;BME280;55230;42.602;23.470;2022-07-23T03:07:54;93617.00;;;17.19;68.01
11053;BME280;55230;42.602;23.470;2022-07-23T03:10:21;93779.09;;;18.28;67.95
11053;BME280;55230;42.602;23.470;2022-07-23T03:12:48;93230.03;;;14.55;67.98
11053;BME280;55230;42.602;23.470;2022-07-23T03:15:14;93227.22;;;14.44;67.96
11053;BME280;55230;42.602;23.470;2022-07-23T03:17:41;93849.53;;;18.61;68.15
11053;BME280;55230;42.602;23.470;2022-07-23T03:20:09;93799.56;;;18.44;68.44
11053;BME280;55230;42.602;23.470;2022-07-23T03:22:37;93835.41;;;18.63;68.41
11053;BME280;55230;42.602;23.470;2022-07-23T03:25:07;93574.38;;;16.80;68.26
11053;BME280;55230;42.602;23.470;2022-07-23T03:27:34;93831.94;;;18.68;68.80
11053;BME280;55230;42.602;23.470;2022-07-23T03:30:01;93819.22;;;18.59;68.33
11053;BME280;55230;42.602;23.470;2022-07-23T03:32:28;93821.25;;;18.64;68.17
11053;BME280;55230;42.602;23.470;2022-07-23T03:34:55;93668.66;;;17.76;67.97
11053;BME280;55230;42.602;23.470;2022-07-23T03:37:22;93849.22;;;19.01;67.49
11053;BME280;55230;42.602;23.470;2022-07-23T03:39:48;93837.06;;;19.08;66.83
11053;BME280;55230;42.602;23.470;2022-07-23T03:42:17;93792.03;;;18.92;66.55
11053;BME280;55230;42.602;23.470;2022-07-23T03:44:43;93843.13;;;19.45;66.77
11053;BME280;55230;42.602;23.470;2022-07-23T03:47:10;93836.94;;;19.67;66.84
11053;BME280;55230;42.602;23.470;2022-07-23T03:49:37;93840.44;;;19.95;66.24
11053;BME280;55230;42.602;23.470;2022-07-23T03:52:04;93838.41;;;20.45;64.10
11053;BME280;55230;42.602;23.470;2022-07-23T03:54:31;93771.13;;;20.55;61.46
11053;BME280;55230;42.602;23.470;2022-07-23T03:56:58;93794.66;;;21.37;59.13
11053;BME280;55230;42.602;23.470;2022-07-23T03:59:26;93839.59;;;22.34;56.43
11053;BME280;55230;42.602;23.470;2022-07-23T04:01:53;93760.84;;;21.89;55.78
11053;BME280;55230;42.602;23.470;2022-07-23T04:04:20;93697.13;;;21.96;52.27
11053;BME280;55230;42.602;23.470;2022-07-23T04:06:46;93854.38;;;23.28;50.44
11053;BME280;55230;42.602;23.470;2022-07-23T04:09:13;93848.19;;;22.98;54.05
11053;BME280;55230;42.602;23.470;2022-07-23T04:11:40;93826.97;;;23.35;50.24
11053;BME280;55230;42.602;23.470;2022-07-23T04:14:07;93776.91;;;23.55;49.38
11053;BME280;55230;42.602;23.470;2022-07-23T04:16:35;93850.09;;;24.46;46.98
11053;BME280;55230;42.602;23.470;2022-07-23T04:19:02;93812.72;;;24.19;46.69
11053;BME280;55230;42.602;23.470;2022-07-23T04:21:30;93856.06;;;23.68;47.69
11053;BME280;55230;42.602;23.470;2022-07-23T04:23:56;93847.25;;;24.07;48.39
11053;BME280;55230;42.602;23.470;2022-07-23T04:26:23;93860.31;;;24.64;47.32
11053;BME280;55230;42.602;23.470;2022-07-23T04:28:50;93775.41;;;24.18;45.86
11053;BME280;55230;42.602;23.470;2022-07-23T04:31:17;93759.34;;;23.58;46.36
11053;BME280;55230;42.602;23.470;2022-07-23T04:33:45;93859.97;;;23.91;46.50
11053;BME280;55230;42.602;23.470;2022-07-23T04:36:11;93868.22;;;24.54;46.17
11053;BME280;55230;42.602;23.470;2022-07-23T04:38:38;93865.31;;;24.34;46.78
11053;BME280;55230;42.602;23.470;2022-07-23T04:41:05;93863.84;;;24.33;45.95
11053;BME280;55230;42.602;23.470;2022-07-23T04:43:32;93858.75;;;25.21;44.12
11053;BME280;55230;42.602;23.470;2022-07-23T04:45:58;93849.47;;;25.44;43.10
11053;BME280;55230;42.602;23.470;2022-07-23T04:48:25;93773.84;;;25.00;42.10
11053;BME280;55230;42.602;23.470;2022-07-23T04:50:53;93799.47;;;24.30;43.85
11053;BME280;55230;42.602;23.470;2022-07-23T04:53:20;93847.28;;;24.77;45.57
11053;BME280;55230;42.602;23.470;2022-07-23T04:55:47;93758.47;;;24.53;42.95
11053;BME280;55230;42.602;23.470;2022-07-23T04:58:14;93878.84;;;26.01;42.22
11053;BME280;55230;42.602;23.470;2022-07-23T05:00:40;93870.91;;;26.60;40.89
11053;BME280;55230;42.602;23.470;2022-07-23T05:03:07;93861.28;;;27.02;39.98
11053;BME280;55230;42.602;23.470;2022-07-23T05:05:34;93817.53;;;27.00;40.10
11053;BME280;55230;42.602;23.470;2022-07-23T05:08:03;93831.22;;;26.08;40.38
11053;BME280;55230;42.602;23.470;2022-07-23T05:10:30;93867.44;;;25.84;41.59
11053;BME280;55230;42.602;23.470;2022-07-23T05:12:57;93896.41;;;24.92;44.09
11053;BME280;55230;42.602;23.470;2022-07-23T05:15:24;93878.09;;;23.86;49.36
11053;BME280;55230;42.602;23.470;2022-07-23T05:17:51;93685.06;;;22.47;50.95
11053;BME280;55230;42.602;23.470;2022-07-23T05:20:18;93883.44;;;23.42;51.47
11053;BME280;55230;42.602;23.470;2022-07-23T05:22:45;93931.81;;;23.37;51.58
11053;BME280;55230;42.602;23.470;2022-07-23T05:25:13;93813.31;;;22.87;51.98
11053;BME280;55230;42.602;23.470;2022-07-23T05:27:40;93832.69;;;23.19;53.38
11053;BME280;55230;42.602;23.470;2022-07-23T05:30:07;93889.84;;;23.50;52.33
11053;BME280;55230;42.602;23.470;2022-07-23T05:32:35;93871.94;;;23.43;51.86
11053;BME280;55230;42.602;23.470;2022-07-23T05:35:03;93894.31;;;24.09;51.45
11053;BME280;55230;42.602;23.470;2022-07-23T05:37:30;93891.94;;;23.99;49.91
11053;BME280;55230;42.602;23.470;2022-07-23T05:40:00;93893.03;;;24.86;47.77
11053;BME280;55230;42.602;23.470;2022-07-23T05:42:28;93762.47;;;23.49;47.21
11053;BME280;55230;42.602;23.470;2022-07-23T05:44:55;93763.22;;;23.81;48.19
11053;BME280;55230;42.602;23.470;2022-07-23T05:47:22;93718.88;;;23.53;48.69
11053;BME280;55230;42.602;23.470;2022-07-23T05:49:49;93848.28;;;24.48;47.27
11053;BME280;55230;42.602;23.470;2022-07-23T05:52:15;93823.06;;;24.57;48.96
11053;BME280;55230;42.602;23.470;2022-07-23T05:54:42;93719.53;;;24.30;46.75
11053;BME280;55230;42.602;23.470;2022-07-23T05:57:09;93890.69;;;24.77;47.51
11053;BME280;55230;42.602;23.470;2022-07-23T05:59:37;93707.38;;;23.18;48.06
11053;BME280;55230;42.602;23.470;2022-07-23T06:02:04;93693.13;;;23.51;47.10
11053;BME280;55230;42.602;23.470;2022-07-23T06:04:31;93894.31;;;25.37;46.74
11053;BME280;55230;42.602;23.470;2022-07-23T06:06:58;93904.81;;;24.86;47.50
11053;BME280;55230;42.602;23.470;2022-07-23T06:09:25;93827.34;;;24.27;47.73
11053;BME280;55230;42.602;23.470;2022-07-23T06:11:52;93856.53;;;24.35;49.50
11053;BME280;55230;42.602;23.470;2022-07-23T06:14:18;93900.31;;;24.39;51.31
11053;BME280;55230;42.602;23.470;2022-07-23T06:16:47;93836.91;;;24.26;51.19
11053;BME280;55230;42.602;23.470;2022-07-23T06:19:13;93754.13;;;23.55;51.88
11053;BME280;55230;42.602;23.470;2022-07-23T06:21:40;93566.16;;;22.46;51.80
11053;BME280;55230;42.602;23.470;2022-07-23T06:24:08;93614.47;;;22.92;49.57
11053;BME280;55230;42.602;23.470;2022-07-23T06:26:35;93765.88;;;24.19;49.72
11053;BME280;55230;42.602;23.470;2022-07-23T06:29:02;93795.19;;;24.87;48.79
11053;BME280;55230;42.602;23.470;2022-07-23T06:31:29;93897.06;;;25.11;50.47
11053;BME280;55230;42.602;23.470;2022-07-23T06:33:57;93901.31;;;24.99;49.06
11053;BME280;55230;42.602;23.470;2022-07-23T06:36:24;93883.25;;;25.50;49.95
11053;BME280;55230;42.602;23.470;2022-07-23T06:38:51;93856.94;;;25.70;47.24
11053;BME280;55230;42.602;23.470;2022-07-23T06:41:17;93887.31;;;26.16;47.40
11053;BME280;55230;42.602;23.470;2022-07-23T06:43:44;93879.03;;;26.16;46.05
11053;BME280;55230;42.602;23.470;2022-07-23T06:46:11;93820.19;;;25.41;46.72
11053;BME280;55230;42.602;23.470;2022-07-23T06:48:38;93884.63;;;25.90;48.12
11053;BME280;55230;42.602;23.470;2022-07-23T06:51:06;93898.19;;;26.01;48.24
11053;BME280;55230;42.602;23.470;2022-07-23T06:53:33;93879.50;;;26.49;45.75
11053;BME280;55230;42.602;23.470;2022-07-23T06:56:00;93894.72;;;26.21;47.31
11053;BME280;55230;42.602;23.470;2022-07-23T06:58:26;93902.31;;;26.42;45.93
11053;BME280;55230;42.602;23.470;2022-07-23T07:00:53;93351.22;;;22.79;45.79
11053;BME280;55230;42.602;23.470;2022-07-23T07:03:22;93886.72;;;26.52;45.43
11053;BME280;55230;42.602;23.470;2022-07-23T07:05:48;93876.53;;;26.05;47.53
11053;BME280;55230;42.602;23.470;2022-07-23T07:08:17;93881.78;;;26.58;48.89
11053;BME280;55230;42.602;23.470;2022-07-23T07:10:44;93744.09;;;25.94;48.59
11053;BME280;55230;42.602;23.470;2022-07-23T07:13:12;93875.25;;;26.68;46.14
11053;BME280;55230;42.602;23.470;2022-07-23T07:15:39;93851.75;;;26.82;44.80
11053;BME280;55230;42.602;23.470;2022-07-23T07:18:06;93832.00;;;27.14;46.13
11053;BME280;55230;42.602;23.470;2022-07-23T07:20:33;93873.78;;;28.10;42.79
11053;BME280;55230;42.602;23.470;2022-07-23T07:23:00;93341.56;;;24.75;42.39
11053;BME280;55230;42.602;23.470;2022-07-23T07:25:28;93871.22;;;28.19;42.43
11053;BME280;55230;42.602;23.470;2022-07-23T07:27:55;93862.59;;;27.87;43.17
11053;BME280;55230;42.602;23.470;2022-07-23T07:30:21;93861.97;;;28.09;42.36
11053;BME280;55230;42.602;23.470;2022-07-23T07:32:48;93866.09;;;27.73;43.83
11053;BME280;55230;42.602;23.470;2022-07-23T07:35:15;93867.50;;;28.02;43.31
11053;BME280;55230;42.602;23.470;2022-07-23T07:37:42;93871.94;;;28.12;43.13
11053;BME280;55230;42.602;23.470;2022-07-23T07:40:09;93663.78;;;26.20;45.23
11053;BME280;55230;42.602;23.470;2022-07-23T07:42:45;93582.31;;;26.21;44.56
11053;BME280;55230;42.602;23.470;2022-07-23T07:45:12;93801.63;;;27.87;41.88
11053;BME280;55230;42.602;23.470;2022-07-23T07:47:39;93865.25;;;27.93;41.88
11053;BME280;55230;42.602;23.470;2022-07-23T07:50:06;93864.16;;;28.03;41.54
11053;BME280;55230;42.602;23.470;2022-07-23T07:52:34;93815.38;;;28.00;40.92
11053;BME280;55230;42.602;23.470;2022-07-23T07:55:02;93859.56;;;28.21;40.22
11053;BME280;55230;42.602;23.470;2022-07-23T07:57:29;93799.03;;;27.82;39.89
11053;BME280;55230;42.602;23.470;2022-07-23T07:59:57;93750.06;;;27.69;41.02
11053;BME280;55230;42.602;23.470;2022-07-23T08:02:24;93752.84;;;27.84;39.61
11053;BME280;55230;42.602;23.470;2022-07-23T08:04:50;93842.63;;;28.70;39.89
11053;BME280;55230;42.602;23.470;2022-07-23T08:07:19;93860.72;;;29.01;36.70
11053;BME280;55230;42.602;23.470;2022-07-23T08:09:46;93598.59;;;26.76;37.84
11053;BME280;55230;42.602;23.470;2022-07-23T08:12:12;93859.03;;;28.98;35.95
11053;BME280;55230;42.602;23.470;2022-07-23T08:14:41;93859.59;;;28.43;36.47
11053;BME280;55230;42.602;23.470;2022-07-23T08:17:11;93855.38;;;28.58;37.91
11053;BME280;55230;42.602;23.470;2022-07-23T08:19:38;93852.06;;;28.59;37.82
11053;BME280;55230;42.602;23.470;2022-07-23T08:22:05;93853.91;;;28.64;37.67
11053;BME280;55230;42.602;23.470;2022-07-23T08:24:31;93820.97;;;28.61;36.55
11053;BME280;55230;42.602;23.470;2022-07-23T08:26:58;93820.91;;;29.06;37.72
11053;BME280;55230;42.602;23.470;2022-07-23T08:29:25;93844.09;;;30.03;37.45
11053;BME280;55230;42.602;23.470;2022-07-23T08:31:52;93856.47;;;29.62;36.00
11053;BME280;55230;42.602;23.470;2022-07-23T08:34:20;93742.19;;;29.03;36.25
11053;BME280;55230;42.602;23.470;2022-07-23T08:36:47;93725.09;;;28.75;35.69
11053;BME280;55230;42.602;23.470;2022-07-23T08:39:13;93851.06;;;29.79;34.83
11053;BME280;55230;42.602;23.470;2022-07-23T08:41:40;93850.66;;;29.83;34.31
11053;BME280;55230;42.602;23.470;2022-07-23T08:44:07;93851.50;;;30.00;35.17
11053;BME280;55230;42.602;23.470;2022-07-23T08:46:35;93774.53;;;29.31;34.31
11053;BME280;55230;42.602;23.470;2022-07-23T08:49:03;93851.41;;;29.83;34.13
11053;BME280;55230;42.602;23.470;2022-07-23T08:51:32;93855.69;;;30.16;33.98
11053;BME280;55230;42.602;23.470;2022-07-23T08:54:00;93832.31;;;29.87;33.38
11053;BME280;55230;42.602;23.470;2022-07-23T08:56:27;93790.28;;;29.76;34.82
11053;BME280;55230;42.602;23.470;2022-07-23T08:58:54;93763.59;;;29.65;34.09
11053;BME280;55230;42.602;23.470;2022-07-23T09:01:21;93865.34;;;30.47;33.07
11053;BME280;55230;42.602;23.470;2022-07-23T09:03:48;93807.59;;;29.91;33.42
11053;BME280;55230;42.602;23.470;2022-07-23T09:06:14;93831.47;;;30.34;31.85
11053;BME280;55230;42.602;23.470;2022-07-23T09:08:43;93701.00;;;29.32;31.43
11053;BME280;55230;42.602;23.470;2022-07-23T09:11:12;93848.56;;;30.80;31.65
11053;BME280;55230;42.602;23.470;2022-07-23T09:13:42;93759.06;;;30.58;30.67
11053;BME280;55230;42.602;23.470;2022-07-23T09:16:14;93840.66;;;31.10;31.71
11053;BME280;55230;42.602;23.470;2022-07-23T09:18:44;93709.19;;;30.11;31.45
11053;BME280;55230;42.602;23.470;2022-07-23T09:21:23;93802.38;;;30.52;29.75
11053;BME280;55230;42.602;23.470;2022-07-23T09:23:54;93865.63;;;30.59;32.37
11053;BME280;55230;42.602;23.470;2022-07-23T09:29:05;93676.38;;;29.61;31.72
11053;BME280;55230;42.602;23.470;2022-07-23T09:31:34;93837.66;;;31.33;30.78
11053;BME280;55230;42.602;23.470;2022-07-23T09:34:14;93838.75;;;31.81;31.65
11053;BME280;55230;42.602;23.470;2022-07-23T09:36:41;93837.81;;;32.13;29.84
11053;BME280;55230;42.602;23.470;2022-07-23T09:39:10;93829.34;;;32.20;29.00
11053;BME280;55230;42.602;23.470;2022-07-23T09:41:40;93753.91;;;32.01;30.68
11053;BME280;55230;42.602;23.470;2022-07-23T09:44:12;93574.50;;;31.36;29.81
11053;BME280;55230;42.602;23.470;2022-07-23T09:46:40;93796.31;;;32.26;27.63
11053;BME280;55230;42.602;23.470;2022-07-23T09:49:19;93687.03;;;31.67;26.74
11053;BME280;55230;42.602;23.470;2022-07-23T09:51:52;93824.22;;;32.99;28.12
11053;BME280;55230;42.602;23.470;2022-07-23T09:54:23;93827.00;;;32.53;26.67
11053;BME280;55230;42.602;23.470;2022-07-23T09:56:51;93824.22;;;32.26;28.08
11053;BME280;55230;42.602;23.470;2022-07-23T09:59:18;93821.66;;;32.11;27.52
11053;BME280;55230;42.602;23.470;2022-07-23T10:01:50;93801.81;;;32.43;25.80
11053;BME280;55230;42.602;23.470;2022-07-23T10:04:18;93815.78;;;32.43;27.01
11053;BME280;55230;42.602;23.470;2022-07-23T10:06:45;93805.53;;;32.55;26.94
11053;BME280;55230;42.602;23.470;2022-07-23T10:09:13;93809.09;;;33.11;26.43
11053;BME280;55230;42.602;23.470;2022-07-23T10:11:44;93609.72;;;32.13;28.06
11053;BME280;55230;42.602;23.470;2022-07-23T10:14:11;93808.94;;;33.85;26.12
11053;BME280;55230;42.602;23.470;2022-07-23T10:16:38;93861.16;;;34.31;25.85
11053;BME280;55230;42.602;23.470;2022-07-23T10:19:05;93665.59;;;33.47;25.16
11053;BME280;55230;42.602;23.470;2022-07-23T10:21:38;93806.44;;;33.80;24.94
11053;BME280;55230;42.602;23.470;2022-07-23T10:24:16;93739.16;;;32.83;24.88
11053;BME280;55230;42.602;23.470;2022-07-23T10:26:53;93685.38;;;32.92;25.76
11053;BME280;55230;42.602;23.470;2022-07-23T10:29:32;93732.34;;;33.81;26.93
11053;BME280;55230;42.602;23.470;2022-07-23T10:32:08;93689.97;;;34.15;25.22
11053;BME280;55230;42.602;23.470;2022-07-23T10:34:42;93782.81;;;35.04;22.45
11053;BME280;55230;42.602;23.470;2022-07-23T10:37:14;93787.38;;;35.30;23.70
11053;BME280;55230;42.602;23.470;2022-07-23T10:39:47;93770.53;;;34.87;23.82
11053;BME280;55230;42.602;23.470;2022-07-23T10:42:16;93789.13;;;34.62;23.85
11053;BME280;55230;42.602;23.470;2022-07-23T10:44:45;93641.72;;;33.65;23.20
11053;BME280;55230;42.602;23.470;2022-07-23T10:47:13;93785.94;;;33.87;24.25
11053;BME280;55230;42.602;23.470;2022-07-23T10:50:23;93785.44;;;34.59;25.67
11053;BME280;55230;42.602;23.470;2022-07-23T10:53:11;93710.19;;;34.44;22.58
11053;BME280;55230;42.602;23.470;2022-07-23T10:55:41;93770.13;;;34.81;23.27
11053;BME280;55230;42.602;23.470;2022-07-23T10:58:10;93766.28;;;35.08;23.78
11053;BME280;55230;42.602;23.470;2022-07-23T11:00:37;93762.13;;;35.30;23.42
11053;BME280;55230;42.602;23.470;2022-07-23T11:03:05;93761.13;;;35.25;21.18
11053;BME280;55230;42.602;23.470;2022-07-23T11:05:51;93747.16;;;34.73;22.17
11053;BME280;55230;42.602;23.470;2022-07-23T11:08:19;93749.03;;;34.19;21.46
11053;BME280;55230;42.602;23.470;2022-07-23T11:10:51;93672.38;;;33.25;22.32
11053;BME280;55230;42.602;23.470;2022-07-23T11:16:27;93737.19;;;34.00;20.67
11053;BME280;55230;42.602;23.470;2022-07-23T11:21:49;93672.38;;;34.24;19.91
11053;BME280;55230;42.602;23.470;2022-07-23T11:24:21;93694.31;;;33.97;19.70
11053;BME280;55230;42.602;23.470;2022-07-23T11:27:03;93735.31;;;34.23;18.75
11053;BME280;55230;42.602;23.470;2022-07-23T11:29:44;93736.09;;;34.75;20.85
11053;BME280;55230;42.602;23.470;2022-07-23T11:32:36;93685.50;;;34.52;19.74
11053;BME280;55230;42.602;23.470;2022-07-23T11:35:19;93575.94;;;33.54;19.11
11053;BME280;55230;42.602;23.470;2022-07-23T11:37:47;93730.50;;;34.75;18.16
11053;BME280;55230;42.602;23.470;2022-07-23T11:40:16;93705.13;;;35.16;18.05
11053;BME280;55230;42.602;23.470;2022-07-23T11:42:57;93728.63;;;35.76;18.49
11053;BME280;55230;42.602;23.470;2022-07-23T11:45:31;93731.28;;;36.18;18.36
11053;BME280;55230;42.602;23.470;2022-07-23T11:47:58;93719.25;;;35.83;19.02
11053;BME280;55230;42.602;23.470;2022-07-23T11:50:25;93650.66;;;35.19;19.64
11053;BME280;55230;42.602;23.470;2022-07-23T11:52:52;93651.75;;;34.71;20.98
11053;BME280;55230;42.602;23.470;2022-07-23T11:55:20;93714.94;;;35.59;21.81
11053;BME280;55230;42.602;23.470;2022-07-23T11:57:47;93148.47;;;32.22;21.61
11053;BME280;55230;42.602;23.470;2022-07-23T12:00:16;93711.41;;;36.37;19.51
11053;BME280;55230;42.602;23.470;2022-07-23T12:02:46;93709.06;;;36.22;17.85
11053;BME280;55230;42.602;23.470;2022-07-23T12:05:14;93662.03;;;35.88;18.66
11053;BME280;55230;42.602;23.470;2022-07-23T12:07:43;93699.13;;;35.86;18.08
11053;BME280;55230;42.602;23.470;2022-07-23T12:10:12;93707.53;;;35.75;17.50
11053;BME280;55230;42.602;23.470;2022-07-23T12:12:42;93707.56;;;35.42;17.61
11053;BME280;55230;42.602;23.470;2022-07-23T12:15:10;93703.09;;;35.28;18.20
11053;BME280;55230;42.602;23.470;2022-07-23T12:17:38;93692.13;;;35.32;18.74
11053;BME280;55230;42.602;23.470;2022-07-23T12:20:09;93634.91;;;34.29;17.30
11053;BME280;55230;42.602;23.470;2022-07-23T12:22:40;93644.81;;;34.93;19.29
11053;BME280;55230;42.602;23.470;2022-07-23T12:25:09;93695.75;;;35.44;17.86
11053;BME280;55230;42.602;23.470;2022-07-23T12:27:36;93223.88;;;32.13;17.65
11053;BME280;55230;42.602;23.470;2022-07-23T12:30:20;93681.69;;;35.11;17.28
11053;BME280;55230;42.602;23.470;2022-07-23T12:32:49;93682.84;;;34.54;16.01
11053;BME280;55230;42.602;23.470;2022-07-23T12:35:18;93684.31;;;34.76;17.03
11053;BME280;55230;42.602;23.470;2022-07-23T12:37:47;93681.38;;;34.96;17.92
11053;BME280;55230;42.602;23.470;2022-07-23T12:40:28;93679.03;;;35.13;17.55
11053;BME280;55230;42.602;23.470;2022-07-23T12:42:57;93571.06;;;34.58;18.50
11053;BME280;55230;42.602;23.470;2022-07-23T12:45:25;93510.69;;;34.67;18.79
11053;BME280;55230;42.602;23.470;2022-07-23T12:48:04;93663.53;;;36.12;18.79
11053;BME280;55230;42.602;23.470;2022-07-23T12:50:44;93674.47;;;35.85;17.09
11053;BME280;55230;42.602;23.470;2022-07-23T12:53:16;93662.59;;;35.63;18.21
11053;BME280;55230;42.602;23.470;2022-07-23T12:55:44;93627.75;;;35.34;17.58
11053;BME280;55230;42.602;23.470;2022-07-23T12:58:14;93672.25;;;35.28;17.03
11053;BME280;55230;42.602;23.470;2022-07-23T13:01:00;93632.19;;;35.04;17.74
11053;BME280;55230;42.602;23.470;2022-07-23T13:03:30;93629.63;;;34.75;17.48
11053;BME280;55230;42.602;23.470;2022-07-23T13:05:59;93670.81;;;35.06;17.42